Time;durP1;ratioP1;P1;durP2;ratioP2;P2;SDS_P1;SDS_P2;PMS_P1;PMS_P2;Temp;Humidity;BMP_temperature;BMP_pressure;BME280_temperature;BME280_humidity;BME280_pressure;Samples;Min_cycle;Max_cycle;Signal;HPM_P1;HPM_P2
2023/07/13 00:00:28;;;;;;;2.50;1.37;;;16.90;99.90;;;;;;5053982;28;20394;-70
2023/07/13 00:02:54;;;;;;;7.20;1.23;;;16.80;99.90;;;;;;5054017;28;20906;-68
2023/07/13 00:05:23;;;;;;;2.77;1.30;;;16.80;99.90;;;;;;5053703;28;20393;-68
2023/07/13 00:07:50;;;;;;;1.87;1.20;;;16.70;99.90;;;;;;5053642;28;20282;-67
2023/07/13 00:10:16;;;;;;;1.30;1.00;;;16.70;99.90;;;;;;5053696;28;20466;-68
2023/07/13 00:12:42;;;;;;;1.70;1.20;;;16.70;99.90;;;;;;5053759;28;20409;-68
2023/07/13 00:15:20;;;;;;;4.93;1.20;;;16.70;99.90;;;;;;5053427;28;20174;-68
2023/07/13 00:17:47;;;;;;;3.53;1.67;;;16.70;99.90;;;;;;5053504;28;20221;-69
2023/07/13 00:20:12;;;;;;;2.27;1.43;;;16.60;99.90;;;;;;5053659;28;20592;-69
2023/07/13 00:22:38;;;;;;;1.77;1.00;;;16.70;99.90;;;;;;5053599;28;20430;-68
2023/07/13 00:25:05;;;;;;;1.33;1.10;;;16.60;99.90;;;;;;5053309;28;20167;-70
2023/07/13 00:27:31;;;;;;;2.20;1.10;;;16.60;99.90;;;;;;5053398;28;20875;-69
2023/07/13 00:29:57;;;;;;;3.90;1.83;;;16.50;99.90;;;;;;5053486;28;20440;-69
2023/07/13 00:32:25;;;;;;;1.80;1.20;;;16.40;99.90;;;;;;5053551;28;20394;-69
2023/07/13 00:34:51;;;;;;;1.77;1.13;;;16.40;99.90;;;;;;5053411;28;20429;-69
2023/07/13 00:37:17;;;;;;;5.47;0.90;;;16.30;99.90;;;;;;5052876;28;20456;-68
2023/07/13 00:39:42;;;;;;;2.10;1.37;;;16.20;99.90;;;;;;5053214;28;20401;-68
2023/07/13 00:42:08;;;;;;;3.30;1.37;;;16.20;99.90;;;;;;5053180;28;20709;-68
2023/07/13 00:44:33;;;;;;;1.57;1.17;;;16.10;99.90;;;;;;5053079;28;20241;-68
2023/07/13 00:46:59;;;;;;;1.70;1.13;;;16.10;99.90;;;;;;5052835;28;20617;-69
2023/07/13 00:49:27;;;;;;;3.90;1.10;;;16.10;99.90;;;;;;5053087;28;20171;-69
2023/07/13 00:51:59;;;;;;;9.63;1.47;;;16.00;99.90;;;;;;5052939;28;20170;-69
2023/07/13 00:54:36;;;;;;;3.00;1.20;;;16.00;99.90;;;;;;5052916;28;20405;-69
2023/07/13 00:57:06;;;;;;;3.00;1.90;;;15.90;99.90;;;;;;5052658;28;20540;-69
2023/07/13 00:59:34;;;;;;;4.20;1.50;;;15.90;99.90;;;;;;5052822;28;20815;-69
2023/07/13 01:02:00;;;;;;;3.90;1.47;;;15.80;99.90;;;;;;5052848;28;20770;-69
2023/07/13 01:04:26;;;;;;;2.50;1.07;;;15.70;99.90;;;;;;5052281;28;20393;-69
2023/07/13 01:06:52;;;;;;;1.20;1.10;;;15.60;99.90;;;;;;5052427;28;20833;-70
2023/07/13 01:09:20;;;;;;;4.97;1.70;;;15.60;99.90;;;;;;5052000;28;20434;-70
2023/07/13 01:11:46;;;;;;;1.10;0.90;;;15.60;99.90;;;;;;5052540;28;20484;-69
2023/07/13 01:14:12;;;;;;;1.83;1.23;;;15.50;99.90;;;;;;5052607;28;20495;-69
2023/07/13 01:16:40;;;;;;;1.30;1.20;;;15.40;99.90;;;;;;5052185;28;21060;-68
2023/07/13 01:19:15;;;;;;;2.33;1.40;;;15.40;99.90;;;;;;5052404;28;20187;-67
2023/07/13 01:21:42;;;;;;;3.03;1.10;;;15.30;99.90;;;;;;5052475;28;20812;-68
2023/07/13 01:24:09;;;;;;;2.10;1.10;;;15.20;99.90;;;;;;5052438;28;20920;-68
2023/07/13 01:26:34;;;;;;;2.80;1.30;;;15.20;99.90;;;;;;5052026;28;20415;-68
2023/07/13 01:29:00;;;;;;;2.53;1.20;;;15.20;99.90;;;;;;5052197;28;20517;-68
2023/07/13 01:31:25;;;;;;;1.10;0.97;;;15.20;99.90;;;;;;5052213;28;20171;-68
2023/07/13 01:33:51;;;;;;;1.97;1.20;;;15.10;99.90;;;;;;5052266;28;20177;-69
2023/07/13 01:36:17;;;;;;;3.27;1.23;;;15.10;99.90;;;;;;5051886;28;20183;-68
2023/07/13 01:38:43;;;;;;;1.30;1.17;;;15.00;99.90;;;;;;5052051;28;20426;-69
2023/07/13 01:41:08;;;;;;;3.30;2.20;;;15.00;99.90;;;;;;5052146;28;20213;-68
2023/07/13 01:43:33;;;;;;;2.30;1.77;;;14.90;99.90;;;;;;5052142;28;20159;-69
2023/07/13 01:45:59;;;;;;;1.77;1.47;;;14.90;99.90;;;;;;5051721;28;20178;-68
2023/07/13 01:48:25;;;;;;;4.97;1.57;;;14.80;99.90;;;;;;5051996;28;20198;-69
2023/07/13 01:50:50;;;;;;;3.70;2.20;;;14.80;99.90;;;;;;5052068;28;20220;-68
2023/07/13 01:53:16;;;;;;;2.63;1.30;;;14.80;99.90;;;;;;5052075;28;20214;-69
2023/07/13 01:55:42;;;;;;;1.97;0.90;;;14.80;99.90;;;;;;5051852;28;20159;-68
2023/07/13 01:58:08;;;;;;;3.03;1.50;;;14.80;99.90;;;;;;5051924;28;20205;-69
2023/07/13 02:00:33;;;;;;;2.87;1.23;;;14.80;99.90;;;;;;5051929;28;20413;-69
2023/07/13 02:02:59;;;;;;;2.70;1.40;;;14.70;99.90;;;;;;5051956;28;20167;-69
2023/07/13 02:05:25;;;;;;;1.90;0.90;;;14.70;99.90;;;;;;5051770;28;20246;-69
2023/07/13 02:07:50;;;;;;;3.90;1.40;;;14.70;99.90;;;;;;5051768;28;20695;-70
2023/07/13 02:10:16;;;;;;;2.10;1.60;;;14.70;99.90;;;;;;5052003;28;20516;-69
2023/07/13 02:12:42;;;;;;;3.90;1.70;;;14.70;99.90;;;;;;5051972;28;20174;-69
2023/07/13 02:15:09;;;;;;;2.00;1.03;;;14.70;99.90;;;;;;5051765;28;20393;-70
2023/07/13 02:17:35;;;;;;;7.10;1.83;;;14.60;99.90;;;;;;5053892;28;20199;-69
2023/07/13 02:20:02;;;;;;;1.47;1.17;;;14.60;99.90;;;;;;5056185;28;20405;-69
2023/07/13 02:22:27;;;;;;;3.00;1.20;;;14.60;99.90;;;;;;5055966;28;20813;-69
2023/07/13 02:24:53;;;;;;;1.67;1.27;;;14.50;99.90;;;;;;5055741;28;20393;-69
2023/07/13 02:27:19;;;;;;;3.73;1.40;;;14.50;99.90;;;;;;5055666;28;20236;-68
2023/07/13 02:29:44;;;;;;;4.50;1.43;;;14.50;99.90;;;;;;5055725;28;20167;-69
2023/07/13 02:32:10;;;;;;;1.63;1.20;;;14.50;99.90;;;;;;5055787;28;20402;-70
2023/07/13 02:34:36;;;;;;;2.13;0.93;;;14.50;99.90;;;;;;5055694;28;20174;-69
2023/07/13 02:37:01;;;;;;;1.40;1.30;;;14.50;99.90;;;;;;5055173;28;20202;-68
2023/07/13 02:39:27;;;;;;;1.70;1.23;;;14.50;99.90;;;;;;5055544;28;20193;-69
2023/07/13 02:41:52;;;;;;;4.17;1.57;;;14.50;99.90;;;;;;5055555;28;20244;-70
2023/07/13 02:44:18;;;;;;;4.60;2.90;;;14.50;99.90;;;;;;5055682;28;20264;-69
2023/07/13 02:46:44;;;;;;;1.87;1.10;;;14.50;99.90;;;;;;5055338;28;20171;-69
2023/07/13 02:49:10;;;;;;;2.50;1.30;;;14.50;99.90;;;;;;5055456;28;20305;-69
2023/07/13 02:51:35;;;;;;;2.10;1.90;;;14.40;99.90;;;;;;5055272;28;20913;-69
2023/07/13 02:54:02;;;;;;;1.60;1.50;;;14.40;99.90;;;;;;5055298;28;20165;-68
2023/07/13 02:56:30;;;;;;;1.73;1.10;;;14.30;99.90;;;;;;5054862;28;20187;-69
2023/07/13 02:58:56;;;;;;;1.33;1.23;;;14.30;99.90;;;;;;5054806;28;20423;-70
2023/07/13 03:01:21;;;;;;;9.33;4.10;;;14.20;99.90;;;;;;5055270;28;20491;-70
2023/07/13 03:03:49;;;;;;;2.50;1.70;;;14.10;99.90;;;;;;5055177;28;20166;-69
2023/07/13 03:06:16;;;;;;;6.63;2.67;;;14.10;99.90;;;;;;5053560;28;20170;-69
2023/07/13 03:08:42;;;;;;;3.57;1.60;;;14.00;99.90;;;;;;5054702;28;20445;-70
2023/07/13 03:11:10;;;;;;;8.20;1.27;;;13.90;99.90;;;;;;5055073;28;20409;-69
2023/07/13 03:13:37;;;;;;;3.20;2.17;;;13.90;99.90;;;;;;5054924;28;20536;-67
2023/07/13 03:16:02;;;;;;;6.50;1.60;;;13.90;99.90;;;;;;5054584;28;20767;-69
2023/07/13 03:18:28;;;;;;;2.67;1.40;;;13.90;99.90;;;;;;5054702;28;20413;-68
2023/07/13 03:20:54;;;;;;;2.13;1.27;;;13.90;99.90;;;;;;5054768;28;20166;-68
2023/07/13 03:23:21;;;;;;;2.13;1.50;;;13.90;99.90;;;;;;5054899;28;20401;-68
2023/07/13 03:25:47;;;;;;;2.30;1.30;;;13.80;99.90;;;;;;5054575;28;20242;-71
2023/07/13 03:28:12;;;;;;;3.13;1.23;;;13.80;99.90;;;;;;5054202;28;20861;-69
2023/07/13 03:30:38;;;;;;;2.50;1.57;;;13.80;99.90;;;;;;5054695;28;20170;-69
2023/07/13 03:33:04;;;;;;;2.60;1.40;;;13.80;99.90;;;;;;5054390;28;20507;-68
2023/07/13 03:35:29;;;;;;;6.17;1.47;;;13.80;99.90;;;;;;5054259;28;20638;-69
2023/07/13 03:37:55;;;;;;;1.80;1.00;;;13.80;99.90;;;;;;5054513;28;20226;-69
2023/07/13 03:40:20;;;;;;;1.87;1.27;;;13.80;99.90;;;;;;5054376;28;20554;-68
2023/07/13 03:42:46;;;;;;;1.40;1.20;;;13.80;99.90;;;;;;5054349;28;20159;-69
2023/07/13 03:45:12;;;;;;;1.40;1.10;;;13.70;99.90;;;;;;5052822;28;20171;-68
2023/07/13 03:47:37;;;;;;;1.27;0.90;;;13.80;99.90;;;;;;5054271;28;20553;-68
2023/07/13 03:50:03;;;;;;;5.83;1.70;;;13.80;99.90;;;;;;5054173;28;20245;-70
2023/07/13 03:52:29;;;;;;;1.77;1.50;;;13.80;99.90;;;;;;5052923;28;20551;-69
2023/07/13 03:54:55;;;;;;;1.50;0.90;;;13.80;99.90;;;;;;5053907;28;20459;-68
2023/07/13 03:57:20;;;;;;;3.97;1.47;;;13.90;99.90;;;;;;5053810;28;20205;-69
2023/07/13 03:59:46;;;;;;;3.07;1.20;;;13.80;99.90;;;;;;5054137;28;20256;-69
2023/07/13 04:02:11;;;;;;;3.23;1.43;;;13.90;99.90;;;;;;5054070;28;20220;-69
2023/07/13 04:04:40;;;;;;;2.90;1.63;;;13.90;99.90;;;;;;5053876;28;20579;-69
2023/07/13 04:07:07;;;;;;;1.30;1.20;;;13.90;99.90;;;;;;5053696;28;20254;-69
2023/07/13 04:09:32;;;;;;;2.20;1.90;;;14.00;99.90;;;;;;5053902;28;20750;-70
2023/07/13 04:11:58;;;;;;;6.40;4.20;;;14.00;99.90;;;;;;5053808;28;20424;-68
2023/07/13 04:14:23;;;;;;;5.30;2.50;;;14.00;99.90;;;;;;5053827;28;20190;-69
2023/07/13 04:16:49;;;;;;;1.53;1.27;;;14.10;99.90;;;;;;5053411;28;20211;-69
2023/07/13 04:19:14;;;;;;;1.63;1.20;;;14.10;99.90;;;;;;5053612;28;20190;-69
2023/07/13 04:21:40;;;;;;;1.60;1.10;;;14.10;99.90;;;;;;5053644;28;20575;-69
2023/07/13 04:24:05;;;;;;;9.43;1.50;;;14.20;99.90;;;;;;5053612;28;20167;-69
2023/07/13 04:26:31;;;;;;;2.60;1.20;;;14.30;99.90;;;;;;5053525;28;20167;-67
2023/07/13 04:28:57;;;;;;;2.50;1.23;;;14.30;99.90;;;;;;5053310;28;20187;-67
2023/07/13 04:31:25;;;;;;;2.00;1.60;;;14.40;99.90;;;;;;5053489;28;20405;-67
2023/07/13 04:33:51;;;;;;;2.03;1.63;;;14.50;99.90;;;;;;5053424;28;20228;-68
2023/07/13 04:36:17;;;;;;;4.73;1.30;;;14.60;99.90;;;;;;5053103;28;20452;-67
2023/07/13 04:38:43;;;;;;;1.63;1.30;;;14.80;99.90;;;;;;5053035;28;20926;-68
2023/07/13 04:41:09;;;;;;;6.23;1.90;;;14.90;99.90;;;;;;5052599;28;20167;-68
2023/07/13 04:43:35;;;;;;;6.20;1.50;;;15.00;99.90;;;;;;5053299;28;20174;-67
2023/07/13 04:46:19;;;;;;;4.13;1.70;;;15.00;99.90;;;;;;5051663;28;20464;-68
2023/07/13 04:48:44;;;;;;;2.03;1.57;;;15.10;99.90;;;;;;5052658;28;20478;-68
2023/07/13 04:51:10;;;;;;;5.20;1.77;;;15.20;99.90;;;;;;5052852;28;20480;-68
2023/07/13 04:53:36;;;;;;;3.43;1.73;;;15.30;99.90;;;;;;5052946;28;20159;-68
2023/07/13 04:56:03;;;;;;;6.83;2.80;;;15.40;99.90;;;;;;5052602;28;20917;-68
2023/07/13 04:58:28;;;;;;;1.80;1.30;;;15.40;99.90;;;;;;5052903;28;20532;-69
2023/07/13 05:01:03;;;;;;;2.40;1.50;;;15.60;99.90;;;;;;5052911;28;20459;-68
2023/07/13 05:03:29;;;;;;;5.27;1.27;;;15.60;99.90;;;;;;5052693;28;20396;-67
2023/07/13 05:06:00;;;;;;;2.90;1.23;;;15.70;99.90;;;;;;5052505;28;20492;-69
2023/07/13 05:08:26;;;;;;;1.40;1.10;;;15.80;99.90;;;;;;5052833;28;20482;-68
2023/07/13 05:10:52;;;;;;;1.50;1.10;;;15.90;99.90;;;;;;5052700;28;20405;-69
2023/07/13 05:13:19;;;;;;;4.70;1.37;;;15.90;99.90;;;;;;5052643;28;20206;-69
2023/07/13 05:15:44;;;;;;;1.50;1.10;;;16.00;99.90;;;;;;5052432;28;20402;-69
2023/07/13 05:18:10;;;;;;;3.23;1.60;;;16.10;99.90;;;;;;5052321;28;20464;-68
2023/07/13 05:20:35;;;;;;;1.33;1.00;;;16.30;99.90;;;;;;5052617;28;20172;-70
2023/07/13 05:23:01;;;;;;;1.53;1.17;;;16.40;99.90;;;;;;5052507;28;20179;-69
2023/07/13 05:25:26;;;;;;;4.60;1.30;;;16.50;99.90;;;;;;5052044;28;20539;-67
2023/07/13 05:27:52;;;;;;;2.33;1.20;;;16.70;99.90;;;;;;5052457;28;20719;-68
2023/07/13 05:30:17;;;;;;;1.87;1.33;;;16.90;99.90;;;;;;5052371;28;20265;-68
2023/07/13 05:32:43;;;;;;;1.50;1.20;;;17.00;99.90;;;;;;5052216;28;20177;-68
2023/07/13 05:35:09;;;;;;;5.60;1.50;;;17.20;99.90;;;;;;5051977;28;20224;-68
2023/07/13 05:37:34;;;;;;;2.80;1.47;;;17.40;99.90;;;;;;5052070;28;20207;-68
2023/07/13 05:40:00;;;;;;;5.03;1.30;;;17.80;99.90;;;;;;5052204;28;20263;-68
2023/07/13 05:42:25;;;;;;;3.13;1.50;;;18.10;99.90;;;;;;5052169;28;20213;-69
2023/07/13 05:44:51;;;;;;;2.20;2.00;;;18.20;99.90;;;;;;5052044;28;20171;-69
2023/07/13 05:47:17;;;;;;;2.60;1.97;;;18.20;99.90;;;;;;5051622;28;20228;-68
2023/07/13 05:49:42;;;;;;;7.13;1.70;;;18.40;99.90;;;;;;5051960;28;20175;-68
2023/07/13 05:52:08;;;;;;;4.17;1.60;;;18.60;99.90;;;;;;5051871;28;20690;-69
2023/07/13 05:54:33;;;;;;;1.30;1.20;;;18.80;99.90;;;;;;5051972;28;20220;-69
2023/07/13 05:56:59;;;;;;;4.03;1.60;;;19.00;99.90;;;;;;5051592;28;20464;-69
2023/07/13 05:59:25;;;;;;;2.33;1.47;;;19.20;99.90;;;;;;5051832;28;20167;-69
2023/07/13 06:01:52;;;;;;;3.43;2.13;;;19.30;99.90;;;;;;5051903;28;20571;-68
2023/07/13 06:04:18;;;;;;;3.13;1.70;;;19.20;99.90;;;;;;5051922;28;20469;-69
2023/07/13 06:06:43;;;;;;;2.00;1.37;;;19.20;99.90;;;;;;5051511;28;20461;-69
2023/07/13 06:09:09;;;;;;;2.30;1.67;;;19.30;99.90;;;;;;5051807;28;20845;-69
2023/07/13 06:11:35;;;;;;;2.60;1.30;;;19.20;99.90;;;;;;5051966;28;20666;-69
2023/07/13 06:14:00;;;;;;;5.07;2.90;;;19.30;99.90;;;;;;5051868;28;20217;-69
2023/07/13 06:16:26;;;;;;;3.20;1.50;;;19.70;99.90;;;;;;5050150;28;20450;-68
2023/07/13 06:18:51;;;;;;;2.07;1.67;;;20.10;99.90;;;;;;5051719;28;20182;-70
2023/07/13 06:21:21;;;;;;;6.33;2.20;;;20.90;99.90;;;;;;5051564;28;20171;-69
2023/07/13 06:23:48;;;;;;;2.47;1.60;;;21.70;99.90;;;;;;5051739;28;20171;-68
2023/07/13 06:26:15;;;;;;;1.70;1.53;;;22.50;99.90;;;;;;5051384;28;20574;-68
2023/07/13 06:28:40;;;;;;;6.07;1.80;;;22.70;99.90;;;;;;5051569;28;20806;-68
2023/07/13 06:31:08;;;;;;;3.60;1.73;;;22.90;99.90;;;;;;5051561;28;20406;-68
2023/07/13 06:33:34;;;;;;;3.03;2.10;;;23.30;99.90;;;;;;5051607;28;20620;-69
2023/07/13 06:35:59;;;;;;;5.07;2.03;;;24.10;99.90;;;;;;5051333;28;20455;-69
2023/07/13 06:38:25;;;;;;;2.80;1.40;;;24.90;99.90;;;;;;5051816;28;20196;-68
2023/07/13 06:40:50;;;;;;;2.10;1.60;;;25.40;98.40;;;;;;5051618;28;20202;-68
2023/07/13 06:43:16;;;;;;;4.30;1.60;;;26.70;95.70;;;;;;5051545;28;20175;-69
2023/07/13 06:45:49;;;;;;;4.10;1.97;;;27.00;83.00;;;;;;5051390;28;20201;-68
2023/07/13 06:48:16;;;;;;;8.93;1.70;;;27.50;77.00;;;;;;5051481;28;20202;-68
2023/07/13 06:50:42;;;;;;;3.20;1.60;;;27.50;73.20;;;;;;5051477;28;21001;-68
2023/07/13 06:53:08;;;;;;;3.57;2.03;;;27.60;72.10;;;;;;5051247;28;20394;-68
2023/07/13 06:55:34;;;;;;;2.40;1.40;;;28.50;68.60;;;;;;5051191;28;20480;-69
2023/07/13 06:57:59;;;;;;;3.77;1.53;;;29.00;63.80;;;;;;5051261;28;20544;-68
2023/07/13 07:00:25;;;;;;;7.13;2.70;;;29.10;60.40;;;;;;5051398;28;20175;-69
2023/07/13 07:02:50;;;;;;;3.77;2.03;;;29.60;58.50;;;;;;5052056;28;20249;-68
2023/07/13 07:05:16;;;;;;;2.43;1.53;;;30.00;55.50;;;;;;5054489;28;20170;-68
2023/07/13 07:07:42;;;;;;;2.33;1.43;;;30.60;54.40;;;;;;5054948;28;20207;-69
2023/07/13 07:10:08;;;;;;;2.20;1.60;;;31.40;53.70;;;;;;5055012;28;20166;-69
2023/07/13 07:12:33;;;;;;;2.43;1.23;;;32.50;51.90;;;;;;5054801;28;20167;-70
2023/07/13 07:14:59;;;;;;;4.80;1.77;;;33.20;46.40;;;;;;5054686;28;20932;-68
2023/07/13 07:17:25;;;;;;;3.03;1.60;;;32.60;45.10;;;;;;5054694;28;20281;-68
2023/07/13 07:19:53;;;;;;;2.37;1.80;;;32.00;45.50;;;;;;5054795;28;20285;-68
2023/07/13 07:22:19;;;;;;;3.67;1.87;;;31.70;46.20;;;;;;5054766;28;20401;-68
2023/07/13 07:24:45;;;;;;;3.30;1.80;;;31.10;46.80;;;;;;5054651;28;20922;-68
2023/07/13 07:27:11;;;;;;;3.87;1.70;;;30.60;47.60;;;;;;5054338;28;20402;-69
2023/07/13 07:29:36;;;;;;;2.70;1.60;;;30.10;48.30;;;;;;5054521;28;20694;-70
2023/07/13 07:32:02;;;;;;;4.10;2.23;;;29.30;48.60;;;;;;5054483;28;20191;-68
2023/07/13 07:34:27;;;;;;;4.40;1.60;;;28.90;50.30;;;;;;5054377;28;20205;-66
2023/07/13 07:36:53;;;;;;;4.90;1.80;;;28.40;51.20;;;;;;5053829;28;20193;-68
2023/07/13 07:39:19;;;;;;;5.97;2.10;;;27.20;52.40;;;;;;5054530;28;20553;-69
2023/07/13 07:41:45;;;;;;;5.13;1.93;;;26.50;54.50;;;;;;5054398;28;20476;-66
2023/07/13 07:44:10;;;;;;;4.70;1.40;;;25.90;56.70;;;;;;5054297;28;20188;-68
2023/07/13 07:46:36;;;;;;;2.73;2.00;;;25.70;58.50;;;;;;5053875;28;20209;-67
2023/07/13 07:49:01;;;;;;;2.90;1.83;;;25.60;60.20;;;;;;5054261;28;20226;-67
2023/07/13 07:51:27;;;;;;;3.57;1.77;;;25.30;61.30;;;;;;5054176;28;20198;-68
2023/07/13 07:53:53;;;;;;;3.53;1.90;;;25.30;64.40;;;;;;5054296;28;20178;-67
2023/07/13 07:56:19;;;;;;;4.57;1.73;;;25.20;65.60;;;;;;5053680;28;20202;-68
2023/07/13 07:58:44;;;;;;;4.13;2.10;;;25.30;67.40;;;;;;5053976;28;20926;-67
2023/07/13 08:01:10;;;;;;;3.00;1.87;;;25.10;67.20;;;;;;5053931;28;20619;-68
2023/07/13 08:03:35;;;;;;;2.53;1.57;;;25.20;68.30;;;;;;5054021;28;20571;-67
2023/07/13 08:06:01;;;;;;;4.33;1.97;;;25.40;69.00;;;;;;5053757;28;20197;-68
2023/07/13 08:08:27;;;;;;;4.40;1.73;;;25.50;69.10;;;;;;5053846;28;20595;-67
2023/07/13 08:10:53;;;;;;;4.83;1.80;;;25.70;68.00;;;;;;5053981;28;20174;-68
2023/07/13 08:13:18;;;;;;;3.77;1.50;;;25.70;68.60;;;;;;5053773;28;20178;-67
2023/07/13 08:15:44;;;;;;;4.13;2.10;;;25.80;67.60;;;;;;5052354;28;20406;-67
2023/07/13 08:18:10;;;;;;;3.80;1.93;;;25.50;68.30;;;;;;5053713;28;20222;-68
2023/07/13 08:20:39;;;;;;;4.00;1.80;;;25.50;69.00;;;;;;5052307;28;20897;-68
2023/07/13 08:23:05;;;;;;;3.43;2.17;;;25.80;70.00;;;;;;5053785;28;20678;-68
2023/07/13 08:25:31;;;;;;;2.97;2.00;;;25.70;67.10;;;;;;5053251;28;20401;-69
2023/07/13 08:27:56;;;;;;;4.17;2.53;;;25.80;68.10;;;;;;5053078;28;20456;-69
2023/07/13 08:30:22;;;;;;;2.30;1.83;;;26.20;68.50;;;;;;5053363;28;20171;-69
2023/07/13 08:32:48;;;;;;;3.37;1.40;;;26.70;67.00;;;;;;5053459;28;20174;-68
2023/07/13 08:35:14;;;;;;;3.07;1.77;;;27.20;66.80;;;;;;5053353;28;20405;-69
2023/07/13 08:37:39;;;;;;;8.83;1.40;;;27.80;63.50;;;;;;5053247;28;20271;-67
2023/07/13 08:40:06;;;;;;;3.33;3.03;;;27.80;59.70;;;;;;5053455;28;20192;-69
2023/07/13 08:42:39;;;;;;;1.67;1.43;;;28.00;59.10;;;;;;5053328;28;20749;-67
2023/07/13 08:45:20;;;;;;;2.97;1.50;;;28.30;58.70;;;;;;5054283;28;20401;-67
2023/07/13 08:47:53;;;;;;;4.13;1.90;;;28.00;58.40;;;;;;5053286;28;20439;-68
2023/07/13 08:50:26;;;;;;;6.40;2.07;;;27.90;58.30;;;;;;5053221;28;20455;-70
2023/07/13 08:52:52;;;;;;;3.70;1.63;;;28.00;57.80;;;;;;5053180;28;20408;-69
2023/07/13 08:55:24;;;;;;;2.33;2.13;;;27.70;57.50;;;;;;5052787;28;20399;-70
2023/07/13 08:57:56;;;;;;;5.23;1.90;;;27.10;58.00;;;;;;5052999;28;20467;-70
2023/07/13 09:00:24;;;;;;;4.40;2.07;;;27.00;59.20;;;;;;5052913;28;20398;-71
2023/07/13 09:03:01;;;;;;;4.77;1.50;;;27.30;60.70;;;;;;5052781;28;20467;-71
2023/07/13 09:05:41;;;;;;;5.23;1.87;;;27.70;60.40;;;;;;5051982;28;20454;-71
2023/07/13 09:08:32;;;;;;;2.67;1.50;;;27.70;59.00;;;;;;5052535;28;20449;-71
2023/07/13 09:11:36;;;;;;;2.93;1.40;;;28.00;57.50;;;;;;5052871;28;20402;-71
2023/07/13 09:14:34;;;;;;;1.93;1.50;;;28.20;57.80;;;;;;5052690;28;20458;-69
2023/07/13 09:17:05;;;;;;;1.53;1.43;;;28.30;56.70;;;;;;5052313;28;20444;-70
2023/07/13 09:19:33;;;;;;;1.20;1.03;;;28.10;55.90;;;;;;5052554;28;20394;-70
2023/07/13 09:22:01;;;;;;;2.40;2.07;;;28.00;55.40;;;;;;5052525;28;20409;-70
2023/07/13 09:24:40;;;;;;;2.60;1.40;;;27.60;55.30;;;;;;5052434;28;20427;-70
2023/07/13 09:27:44;;;;;;;2.00;1.77;;;28.00;56.00;;;;;;5051787;28;20409;-71
2023/07/13 09:30:15;;;;;;;5.10;1.67;;;28.60;54.80;;;;;;5030155;28;20429;-71
2023/07/13 09:32:50;;;;;;;2.17;1.70;;;28.30;53.90;;;;;;5048996;28;20455;-70
2023/07/13 09:35:19;;;;;;;3.60;1.70;;;28.40;54.80;;;;;;5052011;28;20745;-71
2023/07/13 09:37:45;;;;;;;2.93;1.60;;;28.00;54.70;;;;;;5052013;28;20456;-73
2023/07/13 09:40:49;;;;;;;3.47;1.97;;;27.50;55.40;;;;;;5052283;28;20420;-72
2023/07/13 09:43:16;;;;;;;3.50;1.83;;;27.70;56.80;;;;;;5029760;28;20424;-72
2023/07/13 09:45:45;;;;;;;3.77;1.60;;;27.60;55.30;;;;;;5047670;28;20786;-71
2023/07/13 09:48:13;;;;;;;3.40;1.70;;;27.60;55.30;;;;;;5052121;28;20512;-73
2023/07/13 09:50:39;;;;;;;2.20;1.30;;;27.60;55.30;;;;;;5052085;28;20405;-70
2023/07/13 09:53:15;;;;;;;3.40;1.47;;;27.60;55.50;;;;;;5052030;28;20479;-70
2023/07/13 09:55:43;;;;;;;3.20;1.60;;;27.50;55.30;;;;;;5051741;28;20440;-71
2023/07/13 09:58:22;;;;;;;2.60;1.37;;;27.20;55.50;;;;;;5051938;28;20539;-71
2023/07/13 10:00:56;;;;;;;2.93;1.73;;;27.70;56.70;;;;;;5052147;28;20799;-71
2023/07/13 10:03:37;;;;;;;5.10;1.70;;;28.90;54.70;;;;;;5051915;28;20408;-71
2023/07/13 10:06:15;;;;;;;2.10;1.40;;;29.70;52.60;;;;;;5051456;28;20401;-72
2023/07/13 10:08:40;;;;;;;2.00;1.80;;;30.30;50.50;;;;;;5051850;28;20478;-71
2023/07/13 10:11:12;;;;;;;2.70;1.53;;;30.90;48.80;;;;;;5051957;28;20394;-71
2023/07/13 10:13:43;;;;;;;2.20;1.40;;;31.40;48.10;;;;;;5051860;28;20213;-70
2023/07/13 10:16:09;;;;;;;2.90;1.73;;;31.80;46.00;;;;;;5050337;28;20405;-70
2023/07/13 10:18:55;;;;;;;3.17;1.63;;;32.40;47.20;;;;;;5051810;28;20802;-70
2023/07/13 10:21:27;;;;;;;3.53;2.40;;;32.30;43.50;;;;;;5051865;28;20253;-70
2023/07/13 10:24:10;;;;;;;2.37;1.67;;;32.40;44.50;;;;;;5051825;28;20420;-70
2023/07/13 10:26:50;;;;;;;2.27;1.50;;;33.30;45.40;;;;;;5051577;28;20941;-70
2023/07/13 10:29:18;;;;;;;3.47;1.63;;;34.60;42.80;;;;;;5051816;28;20443;-71
2023/07/13 10:31:45;;;;;;;1.33;1.23;;;35.40;39.30;;;;;;5051824;28;20401;-70
2023/07/13 10:34:14;;;;;;;7.33;1.83;;;36.20;38.60;;;;;;5051732;28;20406;-71
2023/07/13 10:36:47;;;;;;;4.67;1.73;;;38.30;37.40;;;;;;5051336;28;20451;-71
2023/07/13 10:39:26;;;;;;;4.30;2.00;;;38.80;35.70;;;;;;5054578;28;20424;-71
2023/07/13 10:42:01;;;;;;;1.83;1.43;;;38.20;35.00;;;;;;5055602;28;20423;-71
2023/07/13 10:44:32;;;;;;;2.03;1.60;;;37.10;34.90;;;;;;5055660;28;20978;-71
2023/07/13 10:47:06;;;;;;;1.50;1.27;;;35.90;34.80;;;;;;5055076;28;20474;-71
2023/07/13 10:49:33;;;;;;;2.13;1.40;;;34.90;36.40;;;;;;5055741;28;20901;-71
2023/07/13 10:51:59;;;;;;;4.60;1.67;;;33.80;37.50;;;;;;5055290;28;20447;-71
2023/07/13 10:54:33;;;;;;;2.27;1.60;;;32.90;38.80;;;;;;5055246;28;20401;-70
2023/07/13 10:57:16;;;;;;;2.20;1.30;;;32.50;39.70;;;;;;5054496;28;20449;-69
2023/07/13 10:59:46;;;;;;;5.07;2.73;;;31.90;40.10;;;;;;5055159;28;20432;-71
2023/07/13 11:02:21;;;;;;;7.03;1.60;;;31.70;41.50;;;;;;5055037;28;20401;-70
2023/07/13 11:04:48;;;;;;;4.20;1.80;;;31.70;41.40;;;;;;5055064;28;20804;-71
2023/07/13 11:07:27;;;;;;;4.33;2.13;;;32.20;41.90;;;;;;5054670;28;20498;-71
2023/07/13 11:09:57;;;;;;;3.20;1.23;;;31.60;40.30;;;;;;5055010;28;20459;-72
2023/07/13 11:12:22;;;;;;;2.63;1.70;;;31.20;41.60;;;;;;5053832;28;20417;-71
2023/07/13 11:14:58;;;;;;;7.93;2.10;;;31.20;42.10;;;;;;5054777;28;20462;-71
2023/07/13 11:17:32;;;;;;;2.03;1.80;;;31.30;42.60;;;;;;5054664;28;20202;-71
2023/07/13 11:20:13;;;;;;;3.30;1.60;;;31.20;41.40;;;;;;5054974;28;20397;-71
2023/07/13 11:22:47;;;;;;;3.10;1.70;;;30.80;42.10;;;;;;5054812;28;20768;-70
2023/07/13 11:25:32;;;;;;;2.37;1.70;;;30.10;42.50;;;;;;5054398;28;20781;-72
2023/07/13 11:28:12;;;;;;;2.83;1.33;;;29.50;43.70;;;;;;5054805;28;20472;-73
2023/07/13 11:30:55;;;;;;;3.17;2.20;;;29.00;44.60;;;;;;5054667;28;20405;-72
2023/07/13 11:33:43;;;;;;;4.13;1.50;;;28.90;46.10;;;;;;5053529;28;20421;-71
2023/07/13 11:36:19;;;;;;;2.57;2.17;;;28.30;44.90;;;;;;5054216;28;20406;-72
2023/07/13 11:39:00;;;;;;;2.23;1.60;;;27.90;46.00;;;;;;5054456;28;20463;-72
2023/07/13 11:41:38;;;;;;;2.40;1.70;;;27.70;46.90;;;;;;5054535;28;20821;-71
2023/07/13 11:44:21;;;;;;;2.87;1.30;;;29.00;48.40;;;;;;5054499;28;20400;-70
2023/07/13 11:46:53;;;;;;;2.77;1.60;;;30.40;46.10;;;;;;5053794;28;20420;-71
2023/07/13 11:49:20;;;;;;;3.63;1.57;;;31.20;41.50;;;;;;5053963;28;20432;-70
2023/07/13 11:51:48;;;;;;;2.90;1.60;;;31.90;42.30;;;;;;5054290;28;20401;-71
2023/07/13 11:54:30;;;;;;;2.20;1.90;;;32.30;40.50;;;;;;5054219;28;20409;-72
2023/07/13 11:57:01;;;;;;;7.03;2.37;;;33.40;41.60;;;;;;5053861;28;20453;-72
2023/07/13 11:59:28;;;;;;;2.40;1.60;;;34.50;40.20;;;;;;5054330;28;20894;-74
2023/07/13 12:01:56;;;;;;;1.67;1.30;;;34.20;37.70;;;;;;5052670;28;20450;-72
2023/07/13 12:04:26;;;;;;;1.70;1.57;;;35.30;37.40;;;;;;5052908;28;20906;-74
2023/07/13 12:07:16;;;;;;;1.63;1.47;;;35.90;35.30;;;;;;5053543;28;20435;-73
2023/07/13 12:09:42;;;;;;;1.60;1.20;;;37.00;36.40;;;;;;5053904;28;20405;-73
2023/07/13 12:12:13;;;;;;;2.17;1.60;;;37.00;33.50;;;;;;5053927;28;20800;-72
2023/07/13 12:14:39;;;;;;;4.07;1.93;;;37.00;32.70;;;;;;5052524;28;20183;-72
2023/07/13 12:17:16;;;;;;;3.00;1.30;;;37.20;32.80;;;;;;5053726;28;20536;-71
2023/07/13 12:19:41;;;;;;;1.80;1.50;;;37.90;31.10;;;;;;5053810;28;20568;-71
2023/07/13 12:22:11;;;;;;;1.93;1.50;;;37.60;31.80;;;;;;5053686;28;20406;-71
2023/07/13 12:24:38;;;;;;;2.70;1.70;;;37.90;31.30;;;;;;5053764;28;20163;-72
2023/07/13 12:27:05;;;;;;;2.93;2.63;;;38.40;30.70;;;;;;5053185;28;20405;-72
2023/07/13 12:29:32;;;;;;;3.33;1.57;;;38.20;30.00;;;;;;5053310;28;20435;-71
2023/07/13 12:31:59;;;;;;;1.80;1.70;;;37.10;31.00;;;;;;5053337;28;20453;-72
2023/07/13 12:34:26;;;;;;;2.63;1.60;;;36.50;32.30;;;;;;5053402;28;20405;-73
2023/07/13 12:37:13;;;;;;;3.40;1.50;;;36.00;32.80;;;;;;5052908;28;20452;-73
2023/07/13 12:39:48;;;;;;;1.63;1.30;;;37.30;32.50;;;;;;5053316;28;20365;-73
2023/07/13 12:42:21;;;;;;;3.43;1.40;;;38.40;31.30;;;;;;5053017;28;20404;-72
2023/07/13 12:44:47;;;;;;;2.20;1.50;;;39.40;29.60;;;;;;5053216;28;20425;-72
2023/07/13 12:47:15;;;;;;;2.70;1.63;;;39.60;28.80;;;;;;5052833;28;20467;-73
2023/07/13 12:49:47;;;;;;;8.83;7.93;;;39.90;28.90;;;;;;5053107;28;20423;-72
2023/07/13 12:52:20;;;;;;;3.73;2.07;;;40.50;29.00;;;;;;5053094;28;20372;-72
2023/07/13 12:54:56;;;;;;;2.17;1.60;;;41.00;27.70;;;;;;5052734;28;20373;-72